Historyczne dane pomiarowe

Dodano dane terminowe – wersja testowa.

Dane z okresu 1951-2019

Wersja bazy: 1.34 [2019-03-16, lista zmian], aktualizacja planowana na 2019-04-15

Dane meteo z obszaru Polski uzyskane na podstawie danych udostępnionych przez Instytut Meteorologii i Gospodarki Wodnej – Państwowy Instytut Badawczy.

 

Wybierz Datę:    

       

TemperaturaWilgotnośćWiatrCiśnienieOpadyŚniegCzas trwania zjawisk
 Stacja t tx tn tng RH VA  wxwx mslp ppp RRR   cm mm wxwxwxwxwxwxwx
1987-08-14 15.6 20.7 9.5 6.6 71.3- 4.7 2.0---- 0.0------------
1987-08-13 12.8 18.9 6.8 4.6 69.3- 6.3 4.7---- 0.0------------
1987-08-12 12.4 17.6 8.4 7.2 79.0- 3.7 5.7---- 0.0------------
1987-08-11 13.3 17.2 11.0 11.2 84.5- 7.0 6.3---- 0.0------------
1987-08-10 15.0 19.0 13.4 10.6 85.0- 8.0 4.0---- 1.9------------
1987-08-09 15.6 23.5 7.3 5.1 68.5- 5.7 4.0---- 0.0------------
1987-08-08 14.4 19.0 11.5 10.1 73.0- 4.3 2.3---- 0.0------------
1987-08-07 12.8 18.8 6.8 5.2 68.8- 4.3 5.0---- 0.0------------
1987-08-06 12.3 16.7 9.8 7.9 76.3- 3.7 4.0---- 0.3------------
1987-08-05 14.3 17.9 9.3 8.6 66.3- 4.7 1.7---- 0.0------------
1987-08-04 14.6 22.1 7.5 9.9 78.8- 5.3 2.3---- 0.9------------
1987-08-03 13.4 18.9 10.0 8.0 75.0- 6.0 3.3---- 0.0------------
1987-08-02 15.2 17.1 14.4 14.2 80.8- 6.7 2.7---- 0.9------------
1987-08-01 16.3 20.8 12.9 11.9 74.0- 3.0 2.3---- 4.2------------
1987-07-31 17.6 24.2 12.8 10.5 75.8- 4.3 3.3---- 3.4------------
1987-07-30 15.9 22.2 9.5 6.9 74.3- 3.7 1.3---- 0.0------------
1987-07-29 14.2 18.2 10.1 9.3 78.3- 4.3 3.3---- 0.0------------
1987-07-28 13.8 17.3 10.9 11.1 83.5- 7.3 3.0---- 0.4------------
1987-07-27 13.6 17.5 9.8 9.4 75.3- 3.3 5.7---- 0.8------------
1987-07-26 15.7 21.6 12.5 12.2 90.8- 8.0 1.3---- 8.0------------
1987-07-25 20.9 26.0 17.6 16.8 79.0- 4.0 2.7---- 0.0------------
1987-07-24 22.4 26.6 17.4 16.7 68.8- 3.3 2.0---- 3.0------------
1987-07-23 22.1 28.1 15.8 14.9 75.3- 1.3 2.7---- 0.0------------
1987-07-22 22.0 28.5 15.9 14.9 85.5- 1.3 1.3---- 0.0------------
1987-07-21 20.8 27.3 14.3 12.6 78.3- 2.0 1.3---- 0.0------------
1987-07-20 22.8 29.9 18.0 17.1 82.0- 5.0 3.7---- 0.0------------
1987-07-19 19.5 23.9 15.7 14.9 92.3- 7.0 3.0---- 0.0------------
1987-07-18 21.2 27.7 17.3 16.2 85.8- 2.0 2.7---- 0.0------------
1987-07-17 20.3 28.5 13.4 17.9 74.3- 5.0 2.7---- 19.6------------
1987-07-16 18.8 26.4 8.8 6.1 66.5- 1.7 2.0---- 0.0------------
1987-07-15 16.4 23.3 7.5 4.5 73.3- 4.7 2.3---- 0.0------------
1987-07-14 15.7 20.4 8.8 7.3 73.3- 1.3 3.7---- 0.0------------
1987-07-13 19.0 24.1 14.4 13.4 72.0- 1.0 3.3---- 0.0------------
1987-07-12 20.8 28.1 12.9 11.6 67.3- 3.3 3.0---- 0.0------------
1987-07-11 15.6 22.1 7.1 5.6 69.0- 3.3 1.7---- 0.0------------
1987-07-10 15.4 19.1 12.8 12.3 70.5- 5.7 4.3---- 0.0------------
1987-07-09 20.2 27.2 14.9 13.1 77.8- 4.3 5.0---- 4.0------------
1987-07-08 20.9 28.5 11.4 7.4 67.0- 0.0 2.0---- 0.0------------
1987-07-07 18.1 25.1 7.8 5.8 67.0- 0.7 2.0---- 0.0------------
1987-07-06 15.9 21.3 7.7 5.2 68.5- 1.3 1.0---- 0.0------------
1987-07-05 15.8 21.3 10.7 8.8 82.3- 4.7 4.0---- 2.7------------
1987-07-04 18.0 22.3 10.9 8.4 67.3- 6.3 2.3---- 0.0------------
1987-07-03 19.0 23.2 16.3 15.0 63.8- 6.3 2.3---- 0.0------------
1987-07-02 21.1 27.7 17.8 16.9 88.0- 4.7 2.0---- 0.0------------
1987-07-01 25.0 31.2 16.3 14.4 75.8- 1.3 1.0---- 0.0------------
1987-06-30 21.5 27.2 15.7 14.4 83.3- 5.3 2.0---- 0.0------------
1987-06-29 18.4 24.0 12.0 9.9 74.8- 1.3 1.3---- 0.0------------
1987-06-28 19.6 24.8 13.7 12.0 77.5- 3.7 2.0---- 0.0------------
1987-06-27 19.7 25.0 13.4 10.3 74.5- 3.3 2.0---- 0.0------------
1987-06-26 15.6 22.3 6.5 3.9 68.5- 2.3 3.0---- 0.0------------
1987-06-25 14.3 19.5 10.0 7.5 83.8- 7.0 4.0---- 1.7------------
1987-06-24 16.9 21.2 13.2 12.0 75.8- 4.7 2.0---- 0.5------------
1987-06-23 17.4 23.4 10.4 8.8 77.8- 2.7 2.0---- 0.0------------
1987-06-22 18.1 24.7 11.5 9.5 78.3- 5.0 1.0---- 0.0------------
1987-06-21 16.9 24.4 8.7 6.9 70.0- 2.7 2.0---- 0.0------------
1987-06-20 15.5 22.0 6.7 4.5 67.8- 2.0 3.0---- 0.0------------
1987-06-19 12.4 17.9 6.6 4.1 77.0- 5.7 2.3---- 0.0------------
1987-06-18 12.0 18.1 6.5 5.2 79.0- 3.7 1.3---- 0.0------------
1987-06-17 11.9 15.0 9.2 8.3 89.5- 6.3 2.7---- 1.1------------
1987-06-16 18.1 25.9 12.6 13.3 83.3- 3.7 6.3---- 0.7------------
1895.9 ms

 

Źródłem pochodzenia danych jest Instytut Meteorologii i Gospodarki Wodnej – Państwowy Instytut Badawczy. Dane Instytutu Meteorologii i Gospodarki Wodnej – Państwowego Instytutu Badawczego zostały przetworzone.

Dane źródłowe można odnaleźć na stronie https://dane.imgw.pl